TimeIST,TemperatureF,Dew PointF,Humidity,Sea Level PressureIn,VisibilityMPH,Wind Direction,Wind SpeedMPH,Gust SpeedMPH,PrecipitationIn,Events,Conditions,WindDirDegrees,DateUTC
12:00 AM,80.6,78.8,94,29.56,1.6,Calm,Calm,-,N/A,,Mostly Cloudy,0,2013-07-31 18:30:00
1:00 AM,78.8,78.8,100,29.53,1.6,Calm,Calm,-,N/A,,Mostly Cloudy,0,2013-07-31 19:30:00
1:50 AM,80.6,78.8,94,29.53,1.6,Calm,Calm,-,N/A,,Mostly Cloudy,0,2013-07-31 20:20:00
2:00 AM,78.8,78.8,100,29.50,1.6,Calm,Calm,-,N/A,,Mostly Cloudy,0,2013-07-31 20:30:00
2:30 AM,80,78,93,29.41,1,Calm,Calm,,,,Mist,,2013-07-31 21:00:00
5:00 AM,80.6,78.8,94,29.53,1.6,Variable,2.3,-,N/A,,Mostly Cloudy,0,2013-07-31 23:30:00
5:30 AM,81,78,88,29.45,1,SSW,1.2,,,,Mist,200,2013-08-01 00:00:00
6:00 AM,80.6,77.0,89,29.53,1.6,Variable,3.5,-,N/A,,Mostly Cloudy,0,2013-08-01 00:30:00
7:00 AM,80.6,78.8,94,29.56,1.6,Variable,2.3,-,N/A,,Mostly Cloudy,0,2013-08-01 01:30:00
8:00 AM,82.4,77.0,84,29.59,1.6,Calm,Calm,-,N/A,,Mostly Cloudy,0,2013-08-01 02:30:00
8:30 AM,82,78,85,29.49,1,East,3.5,,,,Mist,90,2013-08-01 03:00:00
9:00 AM,84.2,78.8,84,29.56,1.6,Variable,1.2,-,N/A,,Mostly Cloudy,0,2013-08-01 03:30:00
10:00 AM,84.2,78.8,84,29.56,1.6,East,8.1,-,N/A,,Overcast,80,2013-08-01 04:30:00
11:00 AM,84.2,78.8,84,29.56,1.6,ENE,6.9,-,N/A,,Overcast,60,2013-08-01 05:30:00
11:30 AM,84,79,82,29.50,1,NE,5.8,,,,Mist,50,2013-08-01 06:00:00
12:00 PM,84.2,80.6,89,29.56,1.6,Variable,5.8,-,N/A,,Mostly Cloudy,0,2013-08-01 06:30:00
1:00 PM,86.0,77.0,74,29.56,1.6,Variable,8.1,-,N/A,,Mostly Cloudy,0,2013-08-01 07:30:00
2:00 PM,87.8,78.8,75,29.53,2.5,Variable,6.9,-,N/A,,Haze,0,2013-08-01 08:30:00
3:00 PM,86.0,80.6,84,29.50,2.5,NE,3.5,-,N/A,,Haze,50,2013-08-01 09:30:00
4:00 PM,86.0,77.0,74,29.50,2.2,NNE,11.5,23.0,N/A,,Haze,30,2013-08-01 10:30:00
5:30 PM,86,77,69,29.39,2,NE,6.9,,,,Haze,50,2013-08-01 12:00:00
6:00 PM,86.0,78.8,79,29.47,2.2,NE,10.4,-,N/A,,Haze,50,2013-08-01 12:30:00
7:00 PM,84.2,78.8,84,29.47,2.2,ENE,5.8,-,N/A,,Haze,60,2013-08-01 13:30:00
7:30 PM,84.2,78.8,84,29.47,2.2,NE,6.9,-,N/A,,Haze,50,2013-08-01 14:00:00
8:30 PM,83,77,79,29.43,1,NNE,4.6,,,,Mist,20,2013-08-01 15:00:00
9:00 PM,84.2,80.6,89,29.53,1.6,NE,4.6,-,N/A,,Mostly Cloudy,40,2013-08-01 15:30:00
10:00 PM,84.2,80.6,89,29.56,1.6,ENE,3.5,-,N/A,,Mostly Cloudy,60,2013-08-01 16:30:00
11:00 PM,82.4,80.6,94,29.56,1.6,East,4.6,-,N/A,,Scattered Clouds,80,2013-08-01 17:30:00
11:30 PM,82.4,80.6,94,29.56,1.6,ENE,4.6,-,N/A,,Mostly Cloudy,60,2013-08-01 18:00:00